createdAt,value
2022-10-13T00:02:20.801Z,6.57
2022-10-13T00:04:48.033Z,6.57
2022-10-13T00:07:15.049Z,8.07
2022-10-13T00:09:42.066Z,7.27
2022-10-13T00:12:09.132Z,7.30
2022-10-13T00:14:36.222Z,10.13
2022-10-13T00:17:03.266Z,10.07
2022-10-13T00:19:31.545Z,11.10
2022-10-13T00:21:58.572Z,9.07
2022-10-13T00:24:25.595Z,10.23
2022-10-13T00:26:52.641Z,7.17
2022-10-13T00:29:19.723Z,8.20
2022-10-13T00:31:46.769Z,9.03
2022-10-13T00:34:13.806Z,9.13
2022-10-13T00:36:40.900Z,9.87
2022-10-13T00:39:08.204Z,8.67
2022-10-13T00:41:35.357Z,7.77
2022-10-13T00:44:06.590Z,10.63
2022-10-13T00:46:34.850Z,9.73
2022-10-13T00:49:09.795Z,7.17
2022-10-13T00:51:40.478Z,7.53
2022-10-13T00:54:10.878Z,8.80
2022-10-13T00:56:38.621Z,8.53
2022-10-13T00:59:09.624Z,8.37
2022-10-13T01:01:36.820Z,8.10
2022-10-13T01:04:03.885Z,7.93
2022-10-13T01:06:30.995Z,7.33
2022-10-13T01:08:58.032Z,10.10
2022-10-13T01:11:25.039Z,8.40
2022-10-13T01:14:04.333Z,7.50
2022-10-13T01:16:49.971Z,8.37
2022-10-13T01:19:35.923Z,6.27
2022-10-13T01:22:21.663Z,8.53
2022-10-13T01:25:07.289Z,9.27
2022-10-13T01:27:39.892Z,6.23
2022-10-13T01:30:10.100Z,9.40
2022-10-13T01:32:37.170Z,9.80
2022-10-13T01:35:12.454Z,8.83
2022-10-13T01:37:56.265Z,7.87
2022-10-13T01:40:52.468Z,9.50
2022-10-13T01:43:19.482Z,9.30
2022-10-13T01:46:10.074Z,8.17
2022-10-13T01:48:38.680Z,7.50
2022-10-13T01:51:07.134Z,11.77
2022-10-13T01:53:35.222Z,6.93
2022-10-13T01:56:02.294Z,10.17
2022-10-13T01:58:31.024Z,6.57
2022-10-13T02:01:06.862Z,7.43
2022-10-13T02:03:43.006Z,10.33
2022-10-13T02:06:16.818Z,8.50
2022-10-13T02:08:46.856Z,10.60
2022-10-13T02:11:18.707Z,8.93
2022-10-13T02:13:49.515Z,6.20
2022-10-13T02:16:16.536Z,8.77
2022-10-13T02:18:44.180Z,7.47
2022-10-13T02:21:11.280Z,8.63
2022-10-13T02:23:38.474Z,8.33
2022-10-13T02:26:05.732Z,8.77
2022-10-13T02:28:32.963Z,7.67
2022-10-13T02:31:00.045Z,8.57
2022-10-13T02:33:27.148Z,11.17
2022-10-13T02:35:54.228Z,7.23
2022-10-13T02:38:21.248Z,7.90
2022-10-13T02:40:48.292Z,8.40
2022-10-13T02:43:15.328Z,8.30
2022-10-13T02:45:42.367Z,7.33
2022-10-13T02:48:09.606Z,7.90
2022-10-13T02:50:36.668Z,7.17
2022-10-13T02:53:03.781Z,7.83
2022-10-13T02:55:30.862Z,7.57
2022-10-13T02:57:58.090Z,8.27
2022-10-13T03:00:25.189Z,7.97
2022-10-13T03:02:52.256Z,12.03
2022-10-13T03:05:19.304Z,7.27
2022-10-13T03:07:46.323Z,11.33
2022-10-13T03:10:13.383Z,6.30
2022-10-13T03:12:40.400Z,6.57
2022-10-13T03:15:07.996Z,8.50
2022-10-13T03:17:35.066Z,7.97
2022-10-13T03:20:02.118Z,7.80
2022-10-13T03:22:31.536Z,14.47
2022-10-13T03:24:59.014Z,6.83
2022-10-13T03:27:26.046Z,7.93
2022-10-13T03:29:53.063Z,7.67
2022-10-13T03:32:20.342Z,7.47
2022-10-13T03:34:47.541Z,9.13
2022-10-13T03:37:14.551Z,10.37
2022-10-13T03:39:41.815Z,7.77
2022-10-13T03:42:09.181Z,8.10
2022-10-13T03:44:36.217Z,6.60
2022-10-13T03:47:03.386Z,10.80
2022-10-13T03:49:30.390Z,10.80
2022-10-13T03:51:57.407Z,7.90
2022-10-13T03:54:24.653Z,7.47
2022-10-13T03:56:51.679Z,7.50
2022-10-13T03:59:19.360Z,7.03
2022-10-13T04:01:46.439Z,8.90
2022-10-13T04:04:13.596Z,9.10
2022-10-13T04:06:40.699Z,8.53
2022-10-13T04:09:07.891Z,8.30
2022-10-13T04:11:34.955Z,8.67
2022-10-13T04:14:02.001Z,8.43
2022-10-13T04:16:31.214Z,7.57
2022-10-13T04:18:59.589Z,11.03
2022-10-13T04:21:26.902Z,7.50
2022-10-13T04:23:58.408Z,9.93
2022-10-13T04:26:26.312Z,8.13
2022-10-13T04:28:53.840Z,10.80
2022-10-13T04:31:24.575Z,9.33
2022-10-13T04:33:52.009Z,9.90
2022-10-13T04:36:19.670Z,7.93
2022-10-13T04:38:46.886Z,7.43
2022-10-13T04:41:15.023Z,8.27
2022-10-13T04:43:42.121Z,9.23
2022-10-13T04:46:09.133Z,7.77
2022-10-13T04:48:36.258Z,11.77
2022-10-13T04:51:04.311Z,9.70
2022-10-13T04:53:31.910Z,9.83
2022-10-13T04:56:02.765Z,8.50
2022-10-13T04:58:29.863Z,8.07
2022-10-13T05:00:57.116Z,7.63
2022-10-13T05:03:24.529Z,10.13
2022-10-13T05:05:51.759Z,8.37
2022-10-13T05:08:18.781Z,11.27
2022-10-13T05:10:58.995Z,8.43
2022-10-13T05:13:26.475Z,8.87
2022-10-13T05:15:53.506Z,7.50
2022-10-13T05:18:20.894Z,8.47
2022-10-13T05:20:47.995Z,8.53
2022-10-13T05:23:15.387Z,12.13
2022-10-13T05:25:42.433Z,7.17
2022-10-13T05:28:09.630Z,10.27
2022-10-13T05:30:36.708Z,8.37
2022-10-13T05:33:03.794Z,9.27
2022-10-13T05:35:30.956Z,10.77
2022-10-13T05:37:57.971Z,12.90
2022-10-13T05:40:25.016Z,8.50
2022-10-13T05:42:53.027Z,8.10
2022-10-13T05:45:20.690Z,11.33
2022-10-13T05:47:47.712Z,10.63
2022-10-13T05:50:14.779Z,8.13
2022-10-13T05:52:43.043Z,9.83
2022-10-13T05:55:10.906Z,11.50
2022-10-13T05:57:41.065Z,10.53
2022-10-13T06:00:15.194Z,20.73
2022-10-13T06:02:54.265Z,10.93
2022-10-13T06:05:22.543Z,10.17
2022-10-13T06:07:49.598Z,9.50
2022-10-13T06:10:18.591Z,10.83
2022-10-13T06:12:45.690Z,10.97
2022-10-13T06:15:12.751Z,13.53
2022-10-13T06:17:39.783Z,9.47
2022-10-13T06:20:07.489Z,12.77
2022-10-13T06:22:35.695Z,9.70
2022-10-13T06:25:03.335Z,15.47
2022-10-13T06:27:31.243Z,12.10
2022-10-13T06:29:58.313Z,14.60
2022-10-13T06:32:25.467Z,16.10
2022-10-13T06:34:52.591Z,10.60
2022-10-13T06:37:23.438Z,8.97
2022-10-13T06:39:54.084Z,12.43
2022-10-13T06:42:21.581Z,10.50
2022-10-13T06:44:48.975Z,12.13
2022-10-13T06:47:16.038Z,13.10
2022-10-13T06:49:43.246Z,10.50
2022-10-13T06:52:10.338Z,14.17
2022-10-13T06:54:37.363Z,13.93
2022-10-13T06:57:06.286Z,12.47
2022-10-13T06:59:33.307Z,14.93
2022-10-13T07:02:00.357Z,14.80
2022-10-13T07:04:28.211Z,12.60
2022-10-13T07:06:55.298Z,10.90
2022-10-13T07:09:22.396Z,13.77
2022-10-13T07:11:50.162Z,13.20
2022-10-13T07:14:20.170Z,13.07
2022-10-13T07:16:48.558Z,11.53
2022-10-13T07:19:15.560Z,10.40
2022-10-13T07:21:42.711Z,11.53
2022-10-13T07:24:11.016Z,12.80
2022-10-13T07:26:38.138Z,15.07
2022-10-13T07:29:05.567Z,11.13
2022-10-13T07:31:32.852Z,10.07
2022-10-13T07:34:00.424Z,11.87
2022-10-13T07:36:27.674Z,11.33
2022-10-13T07:38:54.772Z,12.23
2022-10-13T07:41:21.821Z,15.07
2022-10-13T07:43:48.882Z,11.43
2022-10-13T07:46:15.914Z,13.43
2022-10-13T07:48:43.051Z,10.97
2022-10-13T07:51:11.841Z,12.20
2022-10-13T07:53:39.253Z,11.13
2022-10-13T07:56:07.533Z,12.47
2022-10-13T07:58:37.021Z,10.67
2022-10-13T08:01:05.456Z,13.13
2022-10-13T08:03:32.912Z,12.00
2022-10-13T08:06:00.925Z,12.60
2022-10-13T08:08:28.550Z,12.90
2022-10-13T08:10:55.827Z,12.27
2022-10-13T08:13:22.907Z,11.30
2022-10-13T08:15:49.979Z,13.90
2022-10-13T08:18:17.096Z,13.60
2022-10-13T08:20:45.378Z,11.63
2022-10-13T08:23:13.352Z,12.13
2022-10-13T08:25:44.108Z,9.50
2022-10-13T08:28:17.273Z,10.80
2022-10-13T08:30:44.553Z,12.67
2022-10-13T08:33:11.680Z,12.43
2022-10-13T08:35:39.232Z,11.53
2022-10-13T08:38:07.582Z,10.17
2022-10-13T08:40:34.721Z,11.17
2022-10-13T08:43:02.044Z,10.60
2022-10-13T08:45:46.383Z,9.77
2022-10-13T08:48:19.343Z,13.00
2022-10-13T08:50:48.438Z,13.23
2022-10-13T08:53:21.197Z,12.47
2022-10-13T08:55:50.305Z,13.43
2022-10-13T08:58:23.507Z,15.27
2022-10-13T09:01:09.164Z,12.17
2022-10-13T09:03:56.346Z,12.17
2022-10-13T09:06:33.133Z,14.27
2022-10-13T09:09:01.434Z,11.63
2022-10-13T09:11:33.977Z,13.00
2022-10-13T09:14:03.271Z,12.13
2022-10-13T09:16:50.554Z,12.73
2022-10-13T09:19:17.558Z,9.93
2022-10-13T09:21:44.597Z,15.80
2022-10-13T09:24:16.276Z,10.93
2022-10-13T09:26:44.450Z,12.17
2022-10-13T09:29:12.966Z,11.83
2022-10-13T09:31:40.024Z,14.03
2022-10-13T09:34:23.581Z,11.53
2022-10-13T09:36:56.877Z,12.90
2022-10-13T09:39:24.063Z,10.30
2022-10-13T09:41:51.261Z,9.77
2022-10-13T09:44:31.315Z,12.80
2022-10-13T09:47:02.681Z,12.00
2022-10-13T09:49:29.778Z,10.43
2022-10-13T09:52:05.930Z,12.57
2022-10-13T09:54:35.904Z,14.37
2022-10-13T09:57:06.328Z,10.53
2022-10-13T09:59:38.226Z,10.17
2022-10-13T10:02:19.355Z,10.80
2022-10-13T10:04:48.688Z,15.13
2022-10-13T10:07:20.531Z,10.53
2022-10-13T10:09:53.786Z,12.43
2022-10-13T10:12:27.532Z,14.27
2022-10-13T10:14:55.015Z,10.27
2022-10-13T10:17:30.961Z,10.57
2022-10-13T10:20:12.903Z,9.33
2022-10-13T10:23:12.593Z,10.80
2022-10-13T10:25:48.062Z,12.23
2022-10-13T10:28:33.238Z,11.33
2022-10-13T10:31:11.684Z,12.73
2022-10-13T10:33:57.335Z,11.60
2022-10-13T10:36:40.045Z,9.07
2022-10-13T10:39:25.977Z,10.70
2022-10-13T10:42:11.777Z,10.33
2022-10-13T10:44:43.550Z,12.73
2022-10-13T10:47:23.412Z,11.50
2022-10-13T10:49:51.970Z,10.50
2022-10-13T10:52:25.384Z,12.37
2022-10-13T10:55:12.668Z,9.87
2022-10-13T10:57:59.057Z,10.90
2022-10-13T11:03:18.367Z,10.57
2022-10-13T11:06:05.737Z,9.73
2022-10-13T11:08:38.857Z,12.63
2022-10-13T11:11:25.192Z,8.73
2022-10-13T11:13:55.825Z,15.77
2022-10-13T11:16:29.057Z,11.70
2022-10-13T11:18:59.212Z,10.40
2022-10-13T11:21:26.311Z,8.37
2022-10-13T11:23:54.215Z,10.30
2022-10-13T11:26:26.512Z,9.30
2022-10-13T11:28:53.595Z,11.70
2022-10-13T11:31:25.526Z,9.23
2022-10-13T11:33:54.199Z,14.63
2022-10-13T11:36:30.657Z,11.60
2022-10-13T11:39:02.796Z,10.27
2022-10-13T11:41:32.702Z,10.77
2022-10-13T11:44:04.477Z,8.53
2022-10-13T11:46:31.482Z,10.67
2022-10-13T11:49:01.568Z,11.30
2022-10-13T11:51:31.743Z,9.03
2022-10-13T11:54:13.864Z,11.77
2022-10-13T11:56:53.263Z,8.67
2022-10-13T11:59:21.335Z,8.37
2022-10-13T12:01:48.431Z,9.60
2022-10-13T12:04:16.127Z,8.17
2022-10-13T12:06:45.670Z,10.13
2022-10-13T12:09:18.494Z,11.07
2022-10-13T12:11:45.813Z,7.20
2022-10-13T12:14:23.975Z,10.77
2022-10-13T12:19:27.724Z,11.00
2022-10-13T12:21:56.706Z,9.70
2022-10-13T12:24:25.036Z,10.33
2022-10-13T12:26:52.556Z,11.97
2022-10-13T12:29:22.057Z,7.10
2022-10-13T12:31:50.255Z,8.67
2022-10-13T12:34:17.262Z,13.70
2022-10-13T12:36:46.010Z,8.87
2022-10-13T12:39:14.616Z,13.23
2022-10-13T12:41:43.628Z,10.23
2022-10-13T12:44:15.491Z,10.07
2022-10-13T12:46:52.137Z,8.53
2022-10-13T12:49:37.144Z,8.97
2022-10-13T12:52:09.961Z,7.63
2022-10-13T12:54:38.563Z,7.40
2022-10-13T12:57:20.072Z,13.33
2022-10-13T12:59:47.443Z,8.20
2022-10-13T13:02:24.499Z,7.30
2022-10-13T13:04:51.590Z,9.07
2022-10-13T13:07:30.612Z,9.33
2022-10-13T13:10:09.567Z,8.33
2022-10-13T13:12:37.953Z,8.77
2022-10-13T13:15:22.418Z,8.30
2022-10-13T13:17:58.696Z,9.57
2022-10-13T13:20:33.321Z,8.53
2022-10-13T13:23:00.692Z,8.30
2022-10-13T13:25:27.866Z,8.27
2022-10-13T13:27:55.020Z,7.53
2022-10-13T13:30:22.959Z,7.50
2022-10-13T13:32:50.309Z,8.57
2022-10-13T13:35:18.871Z,8.80
2022-10-13T13:37:47.912Z,8.10
2022-10-13T13:40:16.319Z,11.53
2022-10-13T13:42:43.392Z,8.17
2022-10-13T13:45:17.380Z,7.47
2022-10-13T13:47:44.920Z,9.67
2022-10-13T13:50:23.234Z,7.10
2022-10-13T13:52:50.409Z,7.63
2022-10-13T13:55:17.588Z,7.80
2022-10-13T13:57:44.778Z,7.40
2022-10-13T14:00:13.057Z,7.90
2022-10-13T14:02:40.228Z,8.43
2022-10-13T14:05:07.716Z,8.27
2022-10-13T14:07:35.028Z,9.87
2022-10-13T14:10:02.625Z,7.23
2022-10-13T14:12:30.798Z,6.23
2022-10-13T14:14:58.502Z,7.33
2022-10-13T14:17:26.199Z,8.53
2022-10-13T14:19:53.231Z,6.70
2022-10-13T14:22:20.366Z,7.90
2022-10-13T14:24:47.739Z,10.30
2022-10-13T14:27:14.789Z,6.00
2022-10-13T14:29:41.940Z,7.53
2022-10-13T14:32:08.985Z,7.50
2022-10-13T14:34:36.058Z,11.10
2022-10-13T14:37:03.109Z,9.00
2022-10-13T14:39:30.159Z,9.63
2022-10-13T14:41:57.195Z,6.93
2022-10-13T14:44:24.245Z,10.83
2022-10-13T14:46:51.301Z,9.90
2022-10-13T14:49:18.325Z,8.67
2022-10-13T14:51:45.416Z,10.07
2022-10-13T14:54:12.488Z,9.07
2022-10-13T14:56:39.562Z,9.30
2022-10-13T14:59:07.321Z,13.20
2022-10-13T15:01:34.865Z,8.13
2022-10-13T15:04:02.333Z,10.57
2022-10-13T15:06:29.761Z,9.93
2022-10-13T15:08:57.293Z,7.93
2022-10-13T15:11:24.770Z,9.07
2022-10-13T15:14:00.669Z,8.30
2022-10-13T15:16:29.541Z,9.20
2022-10-13T15:18:57.080Z,6.73
2022-10-13T15:21:24.166Z,8.57
2022-10-13T15:23:51.301Z,7.33
2022-10-13T15:26:19.319Z,9.13
2022-10-13T15:28:47.995Z,11.73
2022-10-13T15:31:15.683Z,7.87
2022-10-13T15:33:43.373Z,7.10
2022-10-13T15:36:10.454Z,6.23
2022-10-13T15:38:37.473Z,8.10
2022-10-13T15:41:05.366Z,15.53
2022-10-13T15:43:32.542Z,28.10
2022-10-13T15:46:04.119Z,23.27
2022-10-13T15:48:31.474Z,11.47
2022-10-13T15:50:58.755Z,14.13
2022-10-13T15:53:26.188Z,8.67
2022-10-13T15:55:53.341Z,8.60
2022-10-13T15:58:20.390Z,8.07
2022-10-13T16:00:47.482Z,10.37
2022-10-13T16:03:15.382Z,8.00
2022-10-13T16:05:43.174Z,9.30
2022-10-13T16:08:10.299Z,9.43
2022-10-13T16:10:41.274Z,12.23
2022-10-13T16:13:08.443Z,7.63
2022-10-13T16:15:35.508Z,12.63
2022-10-13T16:18:02.663Z,14.10
2022-10-13T16:20:34.439Z,11.60
2022-10-13T16:23:01.811Z,12.77
2022-10-13T16:25:29.457Z,9.03
2022-10-13T16:27:56.636Z,13.10
2022-10-13T16:30:23.675Z,8.87
2022-10-13T16:32:50.766Z,10.83
2022-10-13T16:35:17.978Z,15.23
2022-10-13T16:37:45.041Z,15.10
2022-10-13T16:40:12.109Z,11.53
2022-10-13T16:42:39.146Z,14.50
2022-10-13T16:45:06.543Z,14.83
2022-10-13T16:47:33.577Z,13.47
2022-10-13T16:50:00.650Z,12.73
2022-10-13T16:52:27.706Z,12.47
2022-10-13T16:54:54.733Z,12.97
2022-10-13T16:57:22.032Z,13.23
2022-10-13T16:59:49.414Z,12.63
2022-10-13T17:02:16.479Z,11.77
2022-10-13T17:04:43.739Z,11.93
2022-10-13T17:07:10.833Z,15.23
2022-10-13T17:09:37.957Z,16.00
2022-10-13T17:12:05.175Z,17.10
2022-10-13T17:14:32.268Z,18.60
2022-10-13T17:16:59.345Z,18.07
2022-10-13T17:19:26.459Z,16.33
2022-10-13T17:21:53.525Z,12.53
2022-10-13T17:24:20.613Z,13.27
2022-10-13T17:26:49.493Z,13.83
2022-10-13T17:29:16.543Z,14.23
2022-10-13T17:31:43.814Z,12.93
2022-10-13T17:34:10.835Z,15.53
2022-10-13T17:36:37.859Z,20.33
2022-10-13T17:39:06.882Z,14.07
2022-10-13T17:41:34.016Z,18.83
2022-10-13T17:44:01.148Z,13.43
2022-10-13T17:46:38.420Z,13.27
2022-10-13T17:49:07.399Z,13.30
2022-10-13T17:51:34.689Z,25.83
2022-10-13T17:54:01.840Z,13.40
2022-10-13T17:56:29.392Z,14.10
2022-10-13T17:58:56.802Z,12.53
2022-10-13T18:01:34.095Z,15.53
2022-10-13T18:04:02.607Z,19.47
2022-10-13T18:06:36.778Z,14.97
2022-10-13T18:09:09.605Z,15.70
2022-10-13T18:11:37.743Z,18.20
2022-10-13T18:14:05.267Z,16.63
2022-10-13T18:16:32.473Z,19.07
2022-10-13T18:18:59.495Z,19.63
2022-10-13T18:21:26.825Z,21.00
2022-10-13T18:23:55.578Z,18.03
2022-10-13T18:26:22.633Z,19.13
2022-10-13T18:28:50.572Z,17.53
2022-10-13T18:31:19.354Z,16.83
2022-10-13T18:33:46.603Z,18.83
2022-10-13T18:36:13.826Z,18.97
2022-10-13T18:38:40.888Z,15.90
2022-10-13T18:41:07.994Z,18.53
2022-10-13T18:43:35.113Z,19.23
2022-10-13T18:46:02.902Z,22.30
2022-10-13T18:48:29.952Z,18.20
2022-10-13T18:50:57.078Z,18.30
2022-10-13T18:53:24.156Z,19.90
2022-10-13T18:55:51.183Z,19.13
2022-10-13T18:58:18.261Z,20.70
2022-10-13T19:00:45.531Z,16.97
2022-10-13T19:03:13.814Z,18.30
2022-10-13T19:05:40.857Z,15.50
2022-10-13T19:08:09.444Z,21.30
2022-10-13T19:10:37.002Z,22.13
2022-10-13T19:13:04.257Z,18.67
2022-10-13T19:15:31.360Z,21.27
2022-10-13T19:17:58.449Z,21.27
2022-10-13T19:20:25.571Z,17.90
2022-10-13T19:22:53.538Z,19.63
2022-10-13T19:25:20.717Z,17.40
2022-10-13T19:27:47.821Z,21.20
2022-10-13T19:30:14.895Z,23.00
2022-10-13T19:32:41.916Z,22.93
2022-10-13T19:35:09.028Z,17.93
2022-10-13T19:37:37.238Z,18.63
2022-10-13T19:40:05.262Z,16.50
2022-10-13T19:42:32.326Z,20.17
2022-10-13T19:45:01.692Z,20.17
2022-10-13T19:47:29.350Z,19.07
2022-10-13T19:49:56.412Z,18.27
2022-10-13T19:52:24.816Z,19.27
2022-10-13T19:54:52.168Z,22.90
2022-10-13T19:57:19.674Z,20.53
2022-10-13T19:59:47.920Z,23.10
2022-10-13T20:02:15.043Z,20.67
2022-10-13T20:04:42.115Z,19.87
2022-10-13T20:07:09.140Z,31.70
2022-10-13T20:09:36.230Z,20.43
2022-10-13T20:12:03.350Z,20.97
2022-10-13T20:14:30.456Z,24.90
2022-10-13T20:16:58.486Z,21.37
2022-10-13T20:19:25.658Z,24.10
2022-10-13T20:21:52.917Z,28.13
2022-10-13T20:24:21.643Z,18.40
2022-10-13T20:26:48.692Z,17.90
2022-10-13T20:29:16.107Z,17.57
2022-10-13T20:31:44.906Z,23.10
2022-10-13T20:34:11.997Z,20.63
2022-10-13T20:36:39.406Z,20.07
2022-10-13T20:39:07.581Z,19.90
2022-10-13T20:41:34.934Z,21.40
2022-10-13T20:44:02.148Z,15.37
2022-10-13T20:46:29.337Z,19.83
2022-10-13T20:49:12.939Z,19.70
2022-10-13T20:51:41.121Z,17.60
2022-10-13T20:54:08.318Z,23.17
2022-10-13T20:56:35.765Z,17.07
2022-10-13T20:59:03.853Z,19.77
2022-10-13T21:01:30.895Z,18.63
2022-10-13T21:03:58.339Z,21.97
2022-10-13T21:06:25.756Z,18.93
2022-10-13T21:08:53.087Z,17.27
2022-10-13T21:11:21.283Z,18.73
2022-10-13T21:13:48.825Z,18.03
2022-10-13T21:16:20.289Z,23.70
2022-10-13T21:18:48.856Z,33.53
2022-10-13T21:21:17.597Z,28.70
2022-10-13T21:23:44.701Z,24.53
2022-10-13T21:26:11.970Z,26.50
2022-10-13T21:28:39.639Z,24.60
2022-10-13T21:31:08.050Z,23.07
2022-10-13T21:33:35.977Z,19.10
2022-10-13T21:36:06.067Z,21.73
2022-10-13T21:38:33.101Z,18.73
2022-10-13T21:41:00.124Z,23.23
2022-10-13T21:43:27.160Z,19.67
2022-10-13T21:45:54.443Z,17.73
2022-10-13T21:48:21.465Z,18.30
2022-10-13T21:50:48.660Z,15.67
2022-10-13T21:53:15.710Z,13.37
2022-10-13T21:55:42.802Z,17.53
2022-10-13T21:58:09.824Z,15.27
2022-10-13T22:00:37.001Z,24.00
2022-10-13T22:03:04.106Z,17.33
2022-10-13T22:05:31.131Z,16.53
2022-10-13T22:07:58.171Z,15.50
2022-10-13T22:10:25.234Z,15.40
2022-10-13T22:12:52.330Z,16.33
2022-10-13T22:15:19.411Z,16.23
2022-10-13T22:17:46.468Z,15.93
2022-10-13T22:20:13.491Z,13.90
2022-10-13T22:22:40.523Z,16.30
2022-10-13T22:25:07.889Z,15.23
2022-10-13T22:27:34.932Z,17.33
2022-10-13T22:30:01.974Z,16.43
2022-10-13T22:32:29.001Z,18.03
2022-10-13T22:34:56.032Z,14.97
2022-10-13T22:37:23.310Z,21.27
2022-10-13T22:39:50.546Z,18.33
2022-10-13T22:42:17.556Z,18.60
2022-10-13T22:44:44.598Z,20.33
2022-10-13T22:47:11.632Z,19.43
2022-10-13T22:49:38.698Z,27.10
2022-10-13T22:52:05.749Z,18.47
2022-10-13T22:54:32.797Z,17.03
2022-10-13T22:56:59.848Z,18.53
2022-10-13T22:59:27.060Z,21.23
2022-10-13T23:01:54.085Z,16.30
2022-10-13T23:04:21.140Z,21.87
2022-10-13T23:06:48.180Z,20.27
2022-10-13T23:09:15.272Z,23.30
2022-10-13T23:11:42.291Z,19.30
2022-10-13T23:14:09.482Z,24.67
2022-10-13T23:16:36.546Z,19.63
2022-10-13T23:19:03.721Z,17.67
2022-10-13T23:21:31.354Z,18.70
2022-10-13T23:23:59.676Z,20.60
2022-10-13T23:26:26.849Z,18.90
2022-10-13T23:28:54.213Z,15.43
2022-10-13T23:31:21.388Z,20.93
2022-10-13T23:33:48.496Z,20.00
2022-10-13T23:36:20.277Z,17.73
2022-10-13T23:38:47.307Z,20.67
2022-10-13T23:41:15.434Z,16.70
2022-10-13T23:43:43.000Z,18.00
2022-10-13T23:46:10.687Z,20.03
2022-10-13T23:48:38.244Z,16.80
2022-10-13T23:51:15.464Z,21.00
2022-10-13T23:53:43.197Z,19.90
2022-10-13T23:56:11.360Z,18.07
2022-10-13T23:58:39.117Z,21.53
